Time;durP1;ratioP1;P1;durP2;ratioP2;P2;SDS_P1;SDS_P2;PMS_P1;PMS_P2;Temp;Humidity;BMP_temperature;BMP_pressure;BME280_temperature;BME280_humidity;BME280_pressure;Samples;Min_cycle;Max_cycle;Signal;HPM_P1;HPM_P2
2022/07/21 00:02:21;;;;;;;1999.90;999.90;;;17.40;99.90;;;;;;5094478;28;20036;-80
2022/07/21 00:04:46;;;;;;;1999.90;999.90;;;17.40;99.90;;;;;;5094493;28;20032;-80
2022/07/21 00:07:12;;;;;;;1999.90;999.90;;;17.40;99.90;;;;;;5084574;28;20031;-81
2022/07/21 00:09:37;;;;;;;1999.90;999.90;;;17.40;99.90;;;;;;5088613;28;20091;-80
2022/07/21 00:12:04;;;;;;;1999.90;999.90;;;17.30;99.90;;;;;;5086107;28;20020;-81
2022/07/21 00:14:29;;;;;;;1999.90;999.90;;;17.40;99.90;;;;;;5072400;28;20054;-80
2022/07/21 00:16:55;;;;;;;1999.90;999.90;;;17.40;99.90;;;;;;5095193;28;20024;-80
2022/07/21 00:19:21;;;;;;;1999.90;999.90;;;17.40;99.90;;;;;;5100022;28;20060;-82
2022/07/21 00:21:47;;;;;;;1999.90;999.90;;;17.40;99.90;;;;;;5094172;28;20510;-81
2022/07/21 00:24:12;;;;;;;1999.90;999.90;;;17.40;99.90;;;;;;5100302;28;20036;-81
2022/07/21 00:26:38;;;;;;;1999.90;999.90;;;17.50;99.90;;;;;;5095707;28;20490;-80
2022/07/21 00:29:04;;;;;;;1999.90;999.90;;;17.50;99.90;;;;;;5091229;28;20472;-80
2022/07/21 00:31:31;;;;;;;1999.90;999.90;;;17.50;99.90;;;;;;5071376;28;20036;-81
2022/07/21 00:33:56;;;;;;;1999.90;999.90;;;17.50;99.90;;;;;;5092665;28;20024;-80
2022/07/21 00:36:22;;;;;;;1999.90;999.90;;;17.60;99.90;;;;;;5093536;28;20597;-81
2022/07/21 00:38:49;;;;;;;1999.90;999.90;;;17.60;99.90;;;;;;5088385;28;20031;-80
2022/07/21 00:41:14;;;;;;;1999.90;999.90;;;17.60;99.90;;;;;;5088964;28;20027;-81
2022/07/21 00:43:40;;;;;;;1999.90;999.90;;;17.60;99.90;;;;;;5051599;28;20037;-80
2022/07/21 00:46:06;;;;;;;1999.90;999.90;;;17.60;99.90;;;;;;5098548;28;20027;-81
2022/07/21 00:48:32;;;;;;;1999.90;999.90;;;17.60;99.90;;;;;;5103247;28;20367;-81
2022/07/21 00:50:58;;;;;;;1999.90;999.90;;;17.60;99.90;;;;;;5098192;28;20432;-81
2022/07/21 00:53:24;;;;;;;1999.90;999.90;;;17.60;99.90;;;;;;5099967;28;20502;-80
2022/07/21 00:55:50;;;;;;;1999.90;999.90;;;17.60;99.90;;;;;;5095018;28;20047;-82
2022/07/21 00:58:16;;;;;;;1999.90;999.90;;;17.60;99.90;;;;;;5091584;28;20038;-80
2022/07/21 01:00:42;;;;;;;1999.90;999.90;;;17.60;99.90;;;;;;5091577;28;20248;-81
2022/07/21 01:03:08;;;;;;;1999.90;999.90;;;17.60;99.90;;;;;;5095426;28;20038;-81
2022/07/21 01:05:34;;;;;;;1999.90;999.90;;;17.60;99.90;;;;;;5074205;28;20123;-80
2022/07/21 01:08:02;;;;;;;1999.90;999.90;;;17.60;99.90;;;;;;5090834;28;20092;-80
2022/07/21 01:10:29;;;;;;;1999.90;999.90;;;17.60;99.90;;;;;;5089166;28;20024;-80
2022/07/21 01:12:55;;;;;;;1999.90;999.90;;;17.70;99.90;;;;;;5072299;28;20086;-80
2022/07/21 01:15:22;;;;;;;1999.90;999.90;;;17.70;99.90;;;;;;5097374;28;20051;-80
2022/07/21 01:17:48;;;;;;;1999.90;999.90;;;17.70;99.90;;;;;;5108330;28;20039;-81
2022/07/21 01:20:17;;;;;;;1999.90;999.90;;;17.70;99.90;;;;;;5086000;28;20080;-82
2022/07/21 01:22:45;;;;;;;1999.90;999.90;;;17.60;99.90;;;;;;5102586;28;20103;-80
2022/07/21 01:25:11;;;;;;;1999.90;999.90;;;17.60;99.90;;;;;;5101772;28;20032;-81
2022/07/21 01:27:38;;;;;;;1999.90;999.90;;;17.60;99.90;;;;;;5100625;28;20028;-81
2022/07/21 01:30:09;;;;;;;1999.90;999.90;;;17.60;99.90;;;;;;5098894;28;20027;-80
2022/07/21 01:32:37;;;;;;;1999.90;999.90;;;17.60;99.90;;;;;;5096299;28;20032;-82
2022/07/21 01:35:05;;;;;;;1999.90;999.90;;;17.50;99.90;;;;;;5096352;28;20035;-80
2022/07/21 01:37:31;;;;;;;1999.90;999.90;;;17.50;99.90;;;;;;5090513;28;20024;-80
2022/07/21 01:42:41;;;;;;;1999.90;999.90;;;17.50;99.90;;;;;;5085396;28;20478;-81
2022/07/21 01:45:07;;;;;;;1999.90;999.90;;;17.60;99.90;;;;;;5098642;28;20036;-81
2022/07/21 01:47:33;;;;;;;1999.90;999.90;;;17.70;99.90;;;;;;5107547;28;20103;-81
2022/07/21 01:49:59;;;;;;;1999.90;999.90;;;17.60;99.90;;;;;;5099422;28;20280;-80
2022/07/21 01:52:24;;;;;;;1999.90;999.90;;;17.60;99.90;;;;;;5103652;28;20035;-80
2022/07/21 01:54:50;;;;;;;1999.90;999.90;;;17.60;99.90;;;;;;5098906;28;20424;-81
2022/07/21 01:57:17;;;;;;;1583.22;778.58;;;17.60;99.90;;;;;;5098535;28;20161;-81
2022/07/21 01:59:42;;;;;;;1556.22;769.45;;;17.60;99.90;;;;;;5080955;28;20556;-81
2022/07/21 02:02:09;;;;;;;1999.90;999.90;;;17.60;99.90;;;;;;5093389;28;20039;-81
2022/07/21 02:04:35;;;;;;;1999.90;999.90;;;17.60;99.90;;;;;;5075207;28;20581;-81
2022/07/21 02:07:01;;;;;;;1590.85;783.92;;;17.60;99.90;;;;;;5092106;28;20054;-81
2022/07/21 02:09:27;;;;;;;1999.90;999.90;;;17.70;99.90;;;;;;5092093;28;20032;-81
2022/07/21 02:11:53;;;;;;;483.27;200.85;;;17.70;99.90;;;;;;5086362;28;20039;-81
2022/07/21 02:14:18;;;;;;;1572.38;776.42;;;17.70;99.90;;;;;;5098771;28;20385;-82
2022/07/21 02:16:44;;;;;;;1999.90;999.90;;;17.70;99.90;;;;;;5107521;28;20236;-81
2022/07/21 02:19:10;;;;;;;1560.75;772.63;;;17.70;99.90;;;;;;5103136;28;20024;-81
2022/07/21 02:21:36;;;;;;;1584.82;784.88;;;17.70;99.90;;;;;;5101615;28;20402;-81
2022/07/21 02:24:01;;;;;;;1608.13;790.83;;;17.80;99.90;;;;;;5100837;28;20039;-81
2022/07/21 02:26:27;;;;;;;1611.03;791.85;;;17.70;99.90;;;;;;5098526;28;20031;-82
2022/07/21 02:28:53;;;;;;;1598.85;788.85;;;17.80;99.90;;;;;;5096655;28;20635;-81
2022/07/21 02:31:19;;;;;;;1999.90;999.90;;;17.80;99.90;;;;;;5093694;28;20034;-81
2022/07/21 02:33:44;;;;;;;1625.32;796.65;;;17.90;99.90;;;;;;5095777;28;20055;-81
2022/07/21 02:36:10;;;;;;;1595.85;786.63;;;18.00;99.90;;;;;;5094096;28;20501;-81
2022/07/21 02:38:36;;;;;;;1581.93;779.42;;;17.90;99.90;;;;;;5091148;28;20032;-82
2022/07/21 02:41:02;;;;;;;1583.28;779.15;;;17.90;99.90;;;;;;5085908;28;20036;-82
2022/07/21 02:43:28;;;;;;;390.02;150.55;;;17.90;99.90;;;;;;5093606;28;20039;-81
2022/07/21 02:45:53;;;;;;;1051.07;513.08;;;17.90;99.90;;;;;;5106729;28;20028;-81
2022/07/21 02:48:19;;;;;;;476.95;167.13;;;17.90;99.90;;;;;;5102418;28;20552;-80
2022/07/21 02:50:45;;;;;;;1650.75;804.70;;;17.90;99.90;;;;;;5096108;28;20040;-81
2022/07/21 02:53:22;;;;;;;968.53;388.23;;;17.90;99.90;;;;;;5082779;28;20232;-80
2022/07/21 02:55:50;;;;;;;1634.38;795.05;;;17.90;99.90;;;;;;5100755;28;20031;-80
2022/07/21 02:58:18;;;;;;;1628.28;797.72;;;18.00;99.90;;;;;;5098671;28;20028;-80
2022/07/21 03:00:56;;;;;;;1651.13;807.47;;;18.00;99.90;;;;;;5076202;28;20040;-80
2022/07/21 03:03:24;;;;;;;489.33;183.75;;;17.90;99.90;;;;;;5073756;28;20108;-80
2022/07/21 03:05:50;;;;;;;1632.72;800.20;;;17.90;99.90;;;;;;5095574;28;20031;-80
2022/07/21 03:08:16;;;;;;;1999.90;999.90;;;17.90;99.90;;;;;;5085553;28;20024;-81
2022/07/21 03:10:42;;;;;;;1999.90;999.90;;;17.90;99.90;;;;;;5089997;28;20036;-81
2022/07/21 03:13:09;;;;;;;1571.53;774.08;;;17.90;99.90;;;;;;5077092;28;20586;-80
2022/07/21 03:15:35;;;;;;;1999.90;999.90;;;17.90;99.90;;;;;;5106522;28;20051;-80
2022/07/21 03:18:01;;;;;;;1999.90;999.90;;;17.90;99.90;;;;;;5101763;28;20099;-79
2022/07/21 03:20:29;;;;;;;1625.68;795.05;;;18.00;99.90;;;;;;5101573;28;20114;-80
2022/07/21 03:22:55;;;;;;;1583.68;773.10;;;18.00;99.90;;;;;;5094379;28;20502;-81
2022/07/21 03:25:21;;;;;;;1548.70;761.63;;;18.00;99.90;;;;;;5093761;28;20126;-80
2022/07/21 03:27:48;;;;;;;1999.90;999.90;;;18.00;99.90;;;;;;5098379;28;20050;-81
2022/07/21 03:30:14;;;;;;;1999.90;999.90;;;18.00;99.90;;;;;;5097106;28;20035;-80
2022/07/21 03:32:40;;;;;;;1591.70;777.80;;;18.00;99.90;;;;;;5094877;28;20035;-80
2022/07/21 03:35:07;;;;;;;1999.90;999.90;;;17.90;99.90;;;;;;5091671;28;20073;-81
2022/07/21 03:37:52;;;;;;;1999.90;999.90;;;17.90;99.90;;;;;;5091082;28;20028;-82
2022/07/21 03:40:22;;;;;;;1999.90;999.90;;;17.90;99.90;;;;;;5065620;28;20555;-81
2022/07/21 03:42:50;;;;;;;1999.90;999.90;;;17.90;99.90;;;;;;5089066;28;20084;-81
2022/07/21 03:45:16;;;;;;;1606.30;790.40;;;17.90;99.90;;;;;;5098730;28;20048;-81
2022/07/21 03:47:41;;;;;;;1999.90;999.90;;;17.90;99.90;;;;;;5101790;28;20106;-81
2022/07/21 03:50:07;;;;;;;1999.90;999.90;;;18.00;99.90;;;;;;5080596;28;20560;-80
2022/07/21 03:52:33;;;;;;;1266.40;599.90;;;18.10;99.90;;;;;;5090501;28;20032;-80
2022/07/21 03:55:07;;;;;;;1999.90;999.90;;;18.00;99.90;;;;;;5096430;28;20060;-81
2022/07/21 03:57:47;;;;;;;1999.90;999.90;;;18.00;99.90;;;;;;5098324;28;20038;-81
2022/07/21 04:00:17;;;;;;;1999.90;999.90;;;18.00;99.90;;;;;;5095124;28;20028;-81
2022/07/21 04:02:44;;;;;;;1999.90;999.90;;;18.00;99.90;;;;;;5090380;28;20071;-82
2022/07/21 04:05:14;;;;;;;1999.90;999.90;;;18.10;99.90;;;;;;5088448;28;20036;-81
2022/07/21 04:07:41;;;;;;;1999.90;999.90;;;18.10;99.90;;;;;;5090457;28;20450;-81
2022/07/21 04:10:09;;;;;;;1572.30;774.05;;;18.20;99.90;;;;;;5082807;28;20035;-81
2022/07/21 04:12:35;;;;;;;1999.90;999.90;;;18.20;99.90;;;;;;5090878;28;20043;-82
2022/07/21 04:15:00;;;;;;;1999.90;999.90;;;18.20;99.90;;;;;;5104448;28;20119;-81
2022/07/21 04:17:26;;;;;;;1534.03;760.97;;;18.20;99.90;;;;;;5105051;28;20059;-81
2022/07/21 04:19:51;;;;;;;1999.90;999.90;;;18.30;99.90;;;;;;5093854;28;20035;-81
2022/07/21 04:22:17;;;;;;;1999.90;999.90;;;18.30;99.90;;;;;;5099677;28;20032;-81
2022/07/21 04:24:43;;;;;;;1562.10;770.08;;;18.30;99.90;;;;;;5098765;28;20082;-82
2022/07/21 04:27:08;;;;;;;1999.90;999.90;;;18.30;99.90;;;;;;5099070;28;20447;-81
2022/07/21 04:29:34;;;;;;;1999.90;999.90;;;18.40;99.90;;;;;;5077452;28;20031;-81
2022/07/21 04:32:00;;;;;;;1999.90;999.90;;;18.40;99.90;;;;;;5086293;28;20028;-81
2022/07/21 04:34:27;;;;;;;1999.90;999.90;;;18.40;99.90;;;;;;5091021;28;20546;-80
2022/07/21 04:36:52;;;;;;;1999.90;999.90;;;18.50;99.90;;;;;;5092046;28;20069;-82
2022/07/21 04:39:18;;;;;;;1999.90;999.90;;;18.40;99.90;;;;;;5087469;28;20036;-81
2022/07/21 04:41:44;;;;;;;1999.90;999.90;;;18.50;99.90;;;;;;5089673;28;20039;-80
2022/07/21 04:44:09;;;;;;;1999.90;999.90;;;18.50;99.90;;;;;;5095530;28;20034;-81
2022/07/21 04:46:35;;;;;;;1999.90;999.90;;;18.60;99.90;;;;;;5096929;28;20514;-81
2022/07/21 04:49:01;;;;;;;1999.90;999.90;;;18.60;99.90;;;;;;5102663;28;20031;-82
2022/07/21 04:51:26;;;;;;;1999.90;999.90;;;18.50;99.90;;;;;;5082683;28;20028;-81
2022/07/21 04:53:52;;;;;;;1999.90;999.90;;;18.60;99.90;;;;;;5065893;28;20525;-81
2022/07/21 04:56:18;;;;;;;1999.90;999.90;;;18.60;99.90;;;;;;5100740;28;20040;-81
2022/07/21 04:58:43;;;;;;;1999.90;999.90;;;18.60;99.90;;;;;;5098132;28;20119;-81
2022/07/21 05:01:09;;;;;;;1999.90;999.90;;;18.60;99.90;;;;;;5095272;28;20487;-86
2022/07/21 05:03:35;;;;;;;1999.90;999.90;;;18.70;99.90;;;;;;5095379;28;20054;-82
2022/07/21 05:06:00;;;;;;;1999.90;999.90;;;18.70;99.90;;;;;;5095604;28;20298;-82
2022/07/21 05:08:27;;;;;;;1999.90;999.90;;;18.60;99.90;;;;;;5094187;28;20038;-81
2022/07/21 05:10:53;;;;;;;1999.90;999.90;;;18.70;99.90;;;;;;5093039;28;20050;-81
2022/07/21 05:13:19;;;;;;;1999.90;999.90;;;18.60;99.90;;;;;;5099545;28;20390;-81
2022/07/21 05:15:44;;;;;;;1999.90;999.90;;;18.70;99.90;;;;;;5096390;28;20056;-83
2022/07/21 05:18:10;;;;;;;1999.90;999.90;;;18.60;99.90;;;;;;5105372;28;20462;-81
2022/07/21 05:20:36;;;;;;;1999.90;999.90;;;18.60;99.90;;;;;;5089238;28;20031;-81
2022/07/21 05:23:01;;;;;;;1999.90;999.90;;;18.70;99.90;;;;;;5091835;28;20055;-81
2022/07/21 05:25:28;;;;;;;1999.90;999.90;;;18.80;99.90;;;;;;5101012;28;20055;-82
2022/07/21 05:27:54;;;;;;;1999.90;999.90;;;18.80;99.90;;;;;;5071324;28;20020;-81
2022/07/21 05:30:20;;;;;;;1020.95;504.90;;;18.70;99.90;;;;;;5093414;28;20016;-86
2022/07/21 05:32:46;;;;;;;1999.90;999.90;;;18.80;99.90;;;;;;5096339;28;20364;-81
2022/07/21 05:35:12;;;;;;;1999.90;999.90;;;18.90;99.90;;;;;;5093492;28;20068;-82
2022/07/21 05:37:39;;;;;;;1999.90;999.90;;;19.00;99.90;;;;;;5095269;28;20487;-81
2022/07/21 05:40:06;;;;;;;1999.90;999.90;;;19.00;99.90;;;;;;5092643;28;20038;-81
2022/07/21 05:42:32;;;;;;;1999.90;999.90;;;19.00;99.90;;;;;;5091038;28;20020;-81
2022/07/21 05:44:58;;;;;;;1999.90;999.90;;;18.90;99.90;;;;;;5094881;28;20047;-81
2022/07/21 05:47:24;;;;;;;1999.90;999.90;;;19.10;99.90;;;;;;5090211;28;20055;-81
2022/07/21 05:49:49;;;;;;;1999.90;999.90;;;19.10;99.90;;;;;;5098665;28;20380;-83
2022/07/21 05:52:15;;;;;;;1999.90;999.90;;;19.20;99.90;;;;;;5092357;28;20381;-83
2022/07/21 05:54:41;;;;;;;1999.90;999.90;;;19.20;99.90;;;;;;5097553;28;20188;-83
2022/07/21 05:57:06;;;;;;;1999.90;999.90;;;19.20;99.90;;;;;;5091471;28;20026;-82
2022/07/21 05:59:33;;;;;;;1999.90;999.90;;;19.30;99.90;;;;;;5097675;28;20103;-82
2022/07/21 06:01:58;;;;;;;1999.90;999.90;;;19.40;99.90;;;;;;5094598;28;20093;-82
2022/07/21 06:04:24;;;;;;;1999.90;999.90;;;19.50;99.90;;;;;;5093510;28;20433;-82
2022/07/21 06:06:52;;;;;;;1999.90;999.90;;;19.60;99.90;;;;;;5093404;28;20039;-82
2022/07/21 06:09:18;;;;;;;1999.90;999.90;;;19.70;99.90;;;;;;5091664;28;20020;-82
2022/07/21 06:11:44;;;;;;;1999.90;999.90;;;19.60;99.90;;;;;;5083927;28;20123;-81
2022/07/21 06:14:10;;;;;;;1999.90;999.90;;;19.60;99.90;;;;;;5103191;28;20550;-82
2022/07/21 06:16:35;;;;;;;1999.90;999.90;;;19.70;99.90;;;;;;5099196;28;20028;-83
2022/07/21 06:19:01;;;;;;;1999.90;999.90;;;19.40;99.90;;;;;;5096107;28;20245;-82
2022/07/21 06:21:28;;;;;;;1999.90;999.90;;;19.50;99.90;;;;;;5080270;28;20437;-82
2022/07/21 06:23:53;;;;;;;1999.90;999.90;;;19.60;99.90;;;;;;5075592;28;20023;-82
2022/07/21 06:26:19;;;;;;;1999.90;999.90;;;19.40;99.90;;;;;;5080797;28;20038;-82
2022/07/21 06:28:45;;;;;;;1999.90;999.90;;;19.00;99.90;;;;;;5091243;28;20044;-82
2022/07/21 06:31:11;;;;;;;1999.90;999.90;;;18.80;99.90;;;;;;5088794;28;20187;-82
2022/07/21 06:33:37;;;;;;;1999.90;999.90;;;18.60;99.90;;;;;;5084542;28;20483;-82
2022/07/21 06:36:02;;;;;;;1999.90;999.90;;;18.70;99.90;;;;;;5081137;28;20039;-82
2022/07/21 06:38:28;;;;;;;1999.90;999.90;;;18.80;99.90;;;;;;5086367;28;20028;-82
2022/07/21 06:40:54;;;;;;;1999.90;999.90;;;18.80;99.90;;;;;;5087655;28;20078;-80
2022/07/21 06:43:20;;;;;;;1999.90;999.90;;;18.90;99.90;;;;;;5090172;28;20099;-81
2022/07/21 06:45:45;;;;;;;1999.90;999.90;;;18.90;99.90;;;;;;5105723;28;20063;-81
2022/07/21 06:48:12;;;;;;;1999.90;999.90;;;18.90;99.90;;;;;;5102471;28;20060;-82
2022/07/21 06:50:38;;;;;;;1999.90;999.90;;;18.70;99.90;;;;;;5091758;28;20102;-82
2022/07/21 06:53:04;;;;;;;1999.90;999.90;;;18.70;99.90;;;;;;5097048;28;20204;-81
2022/07/21 06:55:30;;;;;;;1999.90;999.90;;;18.70;99.90;;;;;;5099465;28;20036;-81
2022/07/21 06:57:55;;;;;;;1999.90;999.90;;;18.80;99.90;;;;;;5096559;28;20027;-81
2022/07/21 07:00:22;;;;;;;1999.90;999.90;;;18.90;99.90;;;;;;5092000;28;20032;-82
2022/07/21 07:02:48;;;;;;;1999.90;999.90;;;18.80;99.90;;;;;;5095176;28;20035;-82
2022/07/21 07:05:13;;;;;;;1999.90;999.90;;;18.80;99.90;;;;;;5092769;28;20211;-82
2022/07/21 07:07:40;;;;;;;1999.90;999.90;;;18.80;99.90;;;;;;5091221;28;20601;-82
2022/07/21 07:10:06;;;;;;;1999.90;999.90;;;19.00;99.90;;;;;;5089472;28;20525;-82
2022/07/21 07:12:32;;;;;;;1999.90;999.90;;;19.10;99.90;;;;;;5088104;28;20115;-82
2022/07/21 07:14:57;;;;;;;1999.90;999.90;;;19.20;99.90;;;;;;5095974;28;20609;-82
2022/07/21 07:17:23;;;;;;;1999.90;999.90;;;19.40;99.90;;;;;;5105343;28;20031;-81
2022/07/21 07:19:49;;;;;;;1999.90;999.90;;;19.80;99.90;;;;;;5091949;28;20126;-81
2022/07/21 07:22:15;;;;;;;1999.90;999.90;;;20.00;99.90;;;;;;5101188;28;20391;-82
2022/07/21 07:24:40;;;;;;;1999.90;999.90;;;20.30;99.90;;;;;;5093503;28;20101;-81
2022/07/21 07:27:06;;;;;;;1999.90;999.90;;;20.00;99.90;;;;;;5074526;28;20056;-82
2022/07/21 07:29:32;;;;;;;1999.90;999.90;;;20.10;99.90;;;;;;5089744;28;20494;-81
2022/07/21 07:31:59;;;;;;;1999.90;999.90;;;20.20;99.90;;;;;;5093536;28;20069;-82
2022/07/21 07:34:25;;;;;;;1999.90;999.90;;;20.20;99.90;;;;;;5090999;28;20046;-83
2022/07/21 07:36:50;;;;;;;1999.90;999.90;;;20.30;99.90;;;;;;5091451;28;20521;-82
2022/07/21 07:39:16;;;;;;;1999.90;999.90;;;20.10;99.90;;;;;;5084296;28;20482;-81
2022/07/21 07:41:43;;;;;;;1999.90;999.90;;;20.30;99.90;;;;;;5087590;28;20051;-81
2022/07/21 07:44:09;;;;;;;1999.90;999.90;;;20.40;99.90;;;;;;5089081;28;20079;-83
2022/07/21 07:46:35;;;;;;;1999.90;999.90;;;20.40;99.90;;;;;;5093533;28;20024;-82
2022/07/21 07:49:01;;;;;;;1999.90;999.90;;;20.40;99.90;;;;;;5088382;28;20035;-82
2022/07/21 07:51:27;;;;;;;1999.90;999.90;;;20.60;99.90;;;;;;5088708;28;20029;-83
2022/07/21 07:53:52;;;;;;;1999.90;999.90;;;20.70;99.90;;;;;;5100128;28;20107;-83
2022/07/21 07:56:18;;;;;;;1999.90;999.90;;;20.60;99.90;;;;;;5098103;28;20036;-81
2022/07/21 07:58:44;;;;;;;1999.90;999.90;;;20.60;99.90;;;;;;5095790;28;20403;-81
2022/07/21 08:01:09;;;;;;;1999.90;999.90;;;20.60;99.90;;;;;;5089236;28;20047;-81
2022/07/21 08:03:36;;;;;;;1999.90;999.90;;;21.00;99.90;;;;;;5066048;28;20028;-83
2022/07/21 08:06:06;;;;;;;1999.90;999.90;;;21.20;99.90;;;;;;5086022;28;20454;-81
2022/07/21 08:08:32;;;;;;;1999.90;999.90;;;21.20;99.90;;;;;;5084569;28;20055;-84
2022/07/21 08:10:58;;;;;;;1999.90;999.90;;;21.00;99.90;;;;;;5078922;28;20028;-83
2022/07/21 08:13:24;;;;;;;1999.90;999.90;;;21.00;99.90;;;;;;5088688;28;20550;-82
2022/07/21 08:15:50;;;;;;;1999.90;999.90;;;21.30;99.90;;;;;;5095976;28;20043;-82
2022/07/21 08:18:17;;;;;;;1999.90;999.90;;;21.40;99.90;;;;;;5092684;28;20038;-82
2022/07/21 08:20:46;;;;;;;1999.90;999.90;;;21.90;99.90;;;;;;5093782;28;20065;-82
2022/07/21 08:23:12;;;;;;;1999.90;999.90;;;22.10;98.40;;;;;;5091608;28;20032;-81
2022/07/21 08:25:38;;;;;;;1999.90;999.90;;;22.30;97.60;;;;;;5084384;28;20029;-82
2022/07/21 08:28:05;;;;;;;1999.90;999.90;;;22.30;96.60;;;;;;5084970;28;20042;-82
2022/07/21 08:30:30;;;;;;;1999.90;999.90;;;22.50;94.60;;;;;;5082237;28;20032;-81
2022/07/21 08:32:58;;;;;;;1999.90;999.90;;;22.80;94.90;;;;;;5064279;28;20020;-81
2022/07/21 08:35:24;;;;;;;1999.90;999.90;;;22.80;96.50;;;;;;5090545;28;20083;-82
2022/07/21 08:37:59;;;;;;;1999.90;999.90;;;22.60;96.10;;;;;;5057492;28;20909;-81
2022/07/21 08:40:26;;;;;;;1999.90;999.90;;;22.50;95.50;;;;;;5087242;28;20028;-82
2022/07/21 08:42:53;;;;;;;1999.90;999.90;;;22.30;96.10;;;;;;5093535;28;20486;-83
2022/07/21 08:45:22;;;;;;;1999.90;999.90;;;22.30;95.20;;;;;;5097291;28;20758;-81
2022/07/21 08:47:54;;;;;;;1999.90;999.90;;;22.50;93.50;;;;;;5080389;28;20476;-82
2022/07/21 08:50:24;;;;;;;1999.90;999.90;;;23.50;92.10;;;;;;5078830;28;20043;-81
2022/07/21 08:52:50;;;;;;;1999.90;999.90;;;23.80;91.60;;;;;;5074280;28;20032;-81
2022/07/21 08:55:16;;;;;;;1999.90;999.90;;;24.40;83.30;;;;;;5088266;28;20449;-82
2022/07/21 08:57:42;;;;;;;1999.90;999.90;;;24.60;80.60;;;;;;5093503;28;20029;-81
2022/07/21 09:00:10;;;;;;;1999.90;999.90;;;24.20;80.80;;;;;;5094774;28;20184;-80
2022/07/21 09:02:37;;;;;;;1999.90;999.90;;;24.20;80.20;;;;;;5090082;28;20067;-81
2022/07/21 09:05:05;;;;;;;1999.90;999.90;;;24.30;81.60;;;;;;5070497;28;20772;-81
2022/07/21 09:07:53;;;;;;;1999.90;999.90;;;23.90;80.30;;;;;;5084268;28;20113;-82
2022/07/21 09:10:24;;;;;;;1999.90;999.90;;;23.70;83.20;;;;;;5080433;28;20024;-82
2022/07/21 09:12:56;;;;;;;1999.90;999.90;;;23.30;88.60;;;;;;5077906;28;20028;-82
2022/07/21 09:15:24;;;;;;;1999.90;999.90;;;23.80;83.50;;;;;;5073112;28;20070;-82
2022/07/21 09:18:07;;;;;;;1999.90;999.90;;;23.90;81.30;;;;;;5091837;28;20029;-82
2022/07/21 09:20:34;;;;;;;1999.90;999.90;;;24.50;76.00;;;;;;5079905;28;20040;-83
2022/07/21 09:23:12;;;;;;;1999.90;999.90;;;24.70;72.10;;;;;;5089556;28;20430;-86
2022/07/21 09:25:48;;;;;;;1999.90;999.90;;;25.20;71.60;;;;;;5086317;28;20032;-84
2022/07/21 09:28:18;;;;;;;1999.90;999.90;;;25.10;70.30;;;;;;5079744;28;20024;-84
2022/07/21 09:30:53;;;;;;;1999.90;999.90;;;25.30;69.90;;;;;;5084154;28;20044;-84
2022/07/21 09:33:27;;;;;;;1999.90;999.90;;;25.60;66.60;;;;;;5091834;28;20035;-84
2022/07/21 09:36:04;;;;;;;1999.90;999.90;;;26.10;66.40;;;;;;5092933;28;20031;-92
2022/07/21 09:38:33;;;;;;;1999.90;999.90;;;25.90;73.40;;;;;;5091386;28;20028;-84
2022/07/21 09:41:14;;;;;;;1999.90;999.90;;;25.50;71.40;;;;;;5085780;28;20024;-84
2022/07/21 09:43:43;;;;;;;1999.90;999.90;;;26.50;66.90;;;;;;5095529;28;20040;-83
2022/07/21 09:46:13;;;;;;;1999.90;999.90;;;26.10;61.20;;;;;;5107137;28;20019;-83
2022/07/21 09:48:41;;;;;;;1999.90;999.90;;;25.80;63.20;;;;;;5094837;28;20038;-83
2022/07/21 09:51:34;;;;;;;1999.90;999.90;;;25.50;67.40;;;;;;5096645;28;20031;-84
2022/07/21 09:54:03;;;;;;;1999.90;999.90;;;25.60;64.30;;;;;;5089620;28;20020;-84
2022/07/21 09:56:38;;;;;;;1999.90;999.90;;;25.90;65.10;;;;;;5096702;28;20035;-84
2022/07/21 09:59:06;;;;;;;1999.90;999.90;;;26.00;69.30;;;;;;5092125;28;20028;-84
2022/07/21 10:01:32;;;;;;;1999.90;999.90;;;26.40;62.60;;;;;;5094073;28;20036;-84
2022/07/21 10:03:59;;;;;;;1999.90;999.90;;;26.80;64.90;;;;;;5095525;28;20236;-85
2022/07/21 10:06:27;;;;;;;1999.90;999.90;;;27.10;58.90;;;;;;5091775;28;20028;-88
2022/07/21 10:08:55;;;;;;;1999.90;999.90;;;27.20;56.10;;;;;;5092023;28;20026;-86
2022/07/21 10:11:22;;;;;;;1999.90;999.90;;;27.00;53.00;;;;;;5090286;28;20024;-85
2022/07/21 10:13:48;;;;;;;1999.90;999.90;;;26.80;57.70;;;;;;5063714;28;20442;-86
2022/07/21 10:16:15;;;;;;;1999.90;999.90;;;26.60;55.60;;;;;;5090152;28;20395;-87
2022/07/21 10:19:06;;;;;;;1655.68;209.55;;;26.90;59.30;;;;;;5082521;28;20032;-86
2022/07/21 10:22:01;;;;;;;1999.90;999.90;;;27.10;52.80;;;;;;5103629;28;20023;-86
2022/07/21 10:24:31;;;;;;;1999.90;999.90;;;26.90;55.00;;;;;;5078457;28;20023;-86
2022/07/21 10:27:02;;;;;;;1999.90;999.90;;;26.50;53.80;;;;;;5092632;28;20035;-86
2022/07/21 10:29:47;;;;;;;1509.50;566.97;;;26.80;57.70;;;;;;5079185;28;20394;-87
2022/07/21 10:32:19;;;;;;;1787.32;368.88;;;26.40;53.20;;;;;;5088475;28;20872;-88
2022/07/21 10:34:45;;;;;;;1999.90;999.90;;;26.70;47.90;;;;;;5074159;28;20036;-89
2022/07/21 10:37:30;;;;;;;1999.90;999.90;;;26.20;57.40;;;;;;5074123;28;20460;-86
2022/07/21 10:39:56;;;;;;;1999.90;999.90;;;26.50;53.90;;;;;;5087147;28;20032;-86
2022/07/21 10:42:22;;;;;;;1691.97;229.85;;;26.40;54.40;;;;;;5071208;28;20104;-87
2022/07/21 10:44:48;;;;;;;1999.90;999.90;;;26.20;51.20;;;;;;5062216;28;20031;-85
2022/07/21 10:47:20;;;;;;;1999.90;999.90;;;26.00;57.80;;;;;;5098633;28;20245;-84
2022/07/21 10:49:59;;;;;;;1999.90;520.00;;;25.90;56.20;;;;;;5096500;28;20032;-85
2022/07/21 10:52:40;;;;;;;1999.90;544.55;;;26.50;53.50;;;;;;5098323;28;20023;-85
2022/07/21 10:55:23;;;;;;;1999.90;848.78;;;26.90;52.20;;;;;;5096012;28;20028;-84
2022/07/21 10:58:14;;;;;;;1999.90;999.90;;;26.70;52.60;;;;;;5095124;28;20479;-84
2022/07/21 11:00:52;;;;;;;1999.90;667.05;;;26.30;55.50;;;;;;5092975;27;20113;-84
2022/07/21 11:03:26;;;;;;;1999.90;557.55;;;26.10;54.50;;;;;;5097113;28;20074;-85
2022/07/21 11:06:14;;;;;;;1999.90;999.90;;;25.60;52.70;;;;;;5090671;28;20081;-85
2022/07/21 11:09:01;;;;;;;1999.90;999.90;;;26.50;61.20;;;;;;5088476;28;20058;-84
2022/07/21 11:11:29;;;;;;;1844.90;307.35;;;26.90;55.90;;;;;;5078766;28;20036;-85
2022/07/21 11:14:20;;;;;;;1999.90;746.03;;;27.70;52.00;;;;;;5096286;28;20027;-85
2022/07/21 11:16:56;;;;;;;1999.90;865.30;;;28.30;51.50;;;;;;5062712;28;20028;-86
2022/07/21 11:19:30;;;;;;;1999.90;906.72;;;28.20;49.80;;;;;;5081897;28;20030;-85
2022/07/21 11:21:59;;;;;;;1999.90;958.08;;;28.10;54.50;;;;;;5095031;28;20024;-85
2022/07/21 11:24:26;;;;;;;1999.90;531.45;;;29.20;46.70;;;;;;5074474;28;20032;-88
2022/07/21 11:27:08;;;;;;;1980.95;575.45;;;30.30;47.50;;;;;;5089265;28;20035;-85
2022/07/21 11:29:35;;;;;;;1999.90;992.72;;;28.60;41.70;;;;;;5082325;28;20175;-85
2022/07/21 11:32:02;;;;;;;1999.90;999.90;;;27.70;43.50;;;;;;5093725;28;20032;-85
2022/07/21 11:34:49;;;;;;;1999.90;789.08;;;28.00;51.60;;;;;;5085045;28;20024;-86
2022/07/21 11:37:17;;;;;;;1999.90;999.90;;;27.50;53.00;;;;;;5067154;28;20032;-84
2022/07/21 11:39:43;;;;;;;1999.90;999.90;;;26.50;50.10;;;;;;5072437;28;20040;-86
2022/07/21 11:42:12;;;;;;;1999.90;983.38;;;27.00;49.10;;;;;;5071435;28;20487;-84
2022/07/21 11:44:39;;;;;;;1999.90;999.90;;;26.70;48.90;;;;;;5091159;28;20226;-82
2022/07/21 11:47:06;;;;;;;1999.90;997.85;;;26.60;52.50;;;;;;5096260;28;20041;-89
2022/07/21 11:49:33;;;;;;;1999.90;914.03;;;26.60;53.60;;;;;;5076539;28;20047;-88
2022/07/21 11:52:04;;;;;;;1999.90;990.67;;;26.00;57.40;;;;;;5095612;28;20077;-93
2022/07/21 11:54:36;;;;;;;1999.90;980.03;;;26.70;56.00;;;;;;5090634;28;20642;-90
2022/07/21 11:57:08;;;;;;;1999.90;889.72;;;27.30;51.20;;;;;;5091571;28;20028;-87
2022/07/21 11:59:36;;;;;;;1999.90;999.90;;;27.20;47.30;;;;;;5092547;28;20035;-87
2022/07/21 12:02:06;;;;;;;1999.90;797.35;;;27.50;52.50;;;;;;5094362;28;20058;-86
2022/07/21 12:04:38;;;;;;;1999.90;903.13;;;28.50;50.90;;;;;;5070858;28;20678;-86
2022/07/21 12:07:27;;;;;;;1999.90;836.85;;;29.00;48.20;;;;;;5090031;28;20046;-86